Fisher Branch, Canada
Current Conditions -  °F | °C
As of 3:21 PM on Friday 28 Nov 2014 (Local Time) from CYWG Reporting Station
Overcast Overcast  
Wind Chill: -1°   Ceiling: 7000
Heat Index: 12°   Visibility: 15mi
Dew Point:   Wind: 10mph
Humidity: 67%   Direction: 80°E
Pressure: 29.84"   Gusts: NA
Location:  51.08°N, 97.62°W
Report Text: CYWG 282121Z 08009KT 15SM BKN070 OVC100 M11/M16 A2984 RMK AC7AC1 PRESFR SLP127
Loading
Personal Weather Stations






























Interactive Weather Map New forecast layout! Learn more

10-Day Weather Forecast

Advertisements
Track Severe Weather on mobile